createdAt,value
2024-04-15T00:03:26.708Z,3.10
2024-04-15T00:08:31.422Z,3.17
2024-04-15T00:13:36.099Z,3.33
2024-04-15T00:18:41.540Z,3.05
2024-04-15T00:23:46.251Z,3.47
2024-04-15T00:28:50.933Z,2.97
2024-04-15T00:33:58.072Z,2.80
2024-04-15T00:39:02.853Z,3.22
2024-04-15T00:44:07.814Z,3.28
2024-04-15T00:49:14.517Z,3.20
2024-04-15T00:54:19.523Z,3.33
2024-04-15T00:59:25.286Z,3.20
2024-04-15T01:04:30.106Z,3.10
2024-04-15T01:09:34.836Z,3.70
2024-04-15T01:14:39.505Z,3.63
2024-04-15T01:19:44.232Z,3.65
2024-04-15T01:24:52.707Z,3.15
2024-04-15T01:29:57.577Z,3.33
2024-04-15T01:35:02.285Z,3.17
2024-04-15T01:40:07.375Z,3.40
2024-04-15T01:45:12.521Z,3.50
2024-04-15T01:50:21.424Z,3.60
2024-04-15T01:55:26.096Z,3.78
2024-04-15T02:00:30.820Z,3.83
2024-04-15T02:05:35.524Z,3.80
2024-04-15T02:10:40.265Z,3.35
2024-04-15T02:15:45.447Z,3.45
2024-04-15T02:20:50.156Z,4.00
2024-04-15T02:25:54.884Z,3.70
2024-04-15T02:30:59.666Z,3.63
2024-04-15T02:36:04.411Z,3.55
2024-04-15T02:41:09.114Z,3.40
2024-04-15T02:46:14.137Z,3.67
2024-04-15T02:51:18.924Z,3.70
2024-04-15T02:56:23.637Z,3.53
2024-04-15T03:01:28.401Z,3.65
2024-04-15T03:06:33.153Z,3.75
2024-04-15T03:11:38.644Z,3.65
2024-04-15T03:16:43.876Z,3.70
2024-04-15T03:21:48.652Z,3.63
2024-04-15T03:26:53.457Z,3.53
2024-04-15T03:31:58.175Z,3.55
2024-04-15T03:37:02.954Z,3.55
2024-04-15T03:42:07.823Z,3.15
2024-04-15T03:47:12.873Z,3.58
2024-04-15T03:52:17.734Z,3.67
2024-04-15T03:57:22.655Z,3.20
2024-04-15T04:02:27.578Z,3.42
2024-04-15T04:07:32.436Z,3.33
2024-04-15T04:12:37.168Z,3.50
2024-04-15T04:17:41.986Z,3.65
2024-04-15T04:22:46.739Z,3.10
2024-04-15T04:27:51.433Z,3.20
2024-04-15T04:32:56.752Z,3.28
2024-04-15T04:38:01.735Z,3.22
2024-04-15T04:43:06.830Z,3.90
2024-04-15T04:48:11.948Z,3.60
2024-04-15T04:53:17.140Z,4.07
2024-04-15T04:58:21.853Z,4.40
2024-04-15T05:03:26.622Z,3.00
2024-04-15T05:08:31.344Z,3.95
2024-04-15T05:13:36.567Z,3.10
2024-04-15T05:18:44.843Z,3.03
2024-04-15T05:23:50.421Z,2.78
2024-04-15T05:28:55.168Z,2.85
2024-04-15T05:34:00.017Z,3.63
2024-04-15T05:39:04.704Z,3.60
2024-04-15T05:44:09.543Z,3.42
2024-04-15T05:49:14.290Z,3.30
2024-04-15T05:54:19.048Z,3.80
2024-04-15T05:59:23.978Z,3.20
2024-04-15T06:04:28.813Z,4.53
2024-04-15T06:09:33.587Z,2.90
2024-04-15T06:14:38.400Z,3.00
2024-04-15T06:19:43.116Z,2.80
2024-04-15T06:24:48.446Z,2.95
2024-04-15T06:29:53.404Z,3.10
2024-04-15T06:34:58.086Z,2.92
2024-04-15T06:40:02.777Z,3.03
2024-04-15T06:45:07.758Z,2.60
2024-04-15T06:50:13.397Z,2.55
2024-04-15T06:55:18.342Z,2.80
2024-04-15T07:00:23.215Z,2.65
2024-04-15T07:05:28.138Z,2.60
2024-04-15T07:10:33.303Z,3.00
2024-04-15T07:15:38.124Z,2.47
2024-04-15T07:20:42.801Z,2.55
2024-04-15T07:25:48.040Z,2.85
2024-04-15T07:31:02.741Z,2.85
2024-04-15T07:36:10.481Z,2.42
2024-04-15T07:41:15.191Z,2.50
2024-04-15T07:46:22.316Z,3.28
2024-04-15T07:51:30.844Z,2.45
2024-04-15T07:56:38.065Z,2.33
2024-04-15T08:01:44.755Z,2.35
2024-04-15T08:06:59.971Z,3.30
2024-04-15T08:12:12.829Z,2.25
2024-04-15T08:17:17.726Z,1.83
2024-04-15T08:22:23.883Z,2.38
2024-04-15T08:27:28.656Z,2.28
2024-04-15T08:32:33.517Z,2.20
2024-04-15T08:37:38.259Z,2.00
2024-04-15T08:42:49.080Z,1.95
2024-04-15T08:47:57.226Z,2.50
2024-04-15T08:53:02.078Z,1.60
2024-04-15T08:58:07.809Z,1.92
2024-04-15T09:03:14.107Z,1.90
2024-04-15T09:08:18.864Z,1.73
2024-04-15T09:13:23.594Z,1.95
2024-04-15T09:18:29.025Z,1.80
2024-04-15T09:23:36.124Z,2.03
2024-04-15T09:28:40.893Z,2.22
2024-04-15T09:33:46.379Z,1.85
2024-04-15T09:38:52.890Z,1.60
2024-04-15T09:43:58.484Z,1.77
2024-04-15T09:49:07.741Z,1.60
2024-04-15T09:54:14.431Z,1.50
2024-04-15T09:59:19.997Z,1.70
2024-04-15T10:04:25.651Z,1.70
2024-04-15T10:09:31.033Z,1.60
2024-04-15T10:14:36.811Z,1.63
2024-04-15T10:19:44.044Z,1.80
2024-04-15T10:24:48.809Z,1.38
2024-04-15T10:29:54.018Z,1.90
2024-04-15T10:35:00.575Z,1.60
2024-04-15T10:40:07.665Z,1.85
2024-04-15T10:45:21.333Z,1.70
2024-04-15T10:50:26.678Z,2.22
2024-04-15T10:55:31.476Z,2.20
2024-04-15T11:00:37.333Z,1.60
2024-04-15T11:05:42.034Z,1.70
2024-04-15T11:10:47.584Z,2.00
2024-04-15T11:15:56.416Z,1.58
2024-04-15T11:21:04.996Z,1.80
2024-04-15T11:26:16.875Z,1.50
2024-04-15T11:31:21.711Z,1.20
2024-04-15T11:36:26.621Z,1.33
2024-04-15T11:41:31.324Z,1.55
2024-04-15T11:46:36.142Z,1.40
2024-04-15T11:51:40.864Z,1.63
2024-04-15T11:56:45.771Z,1.45
2024-04-15T12:01:50.637Z,2.08
2024-04-15T12:06:56.337Z,1.42
2024-04-15T12:12:01.052Z,4.68
2024-04-15T12:17:07.630Z,1.77
2024-04-15T12:22:12.416Z,1.50
2024-04-15T12:27:17.600Z,1.50
2024-04-15T12:32:22.407Z,1.48
2024-04-15T12:37:27.205Z,1.55
2024-04-15T12:42:31.915Z,1.55
2024-04-15T12:47:38.373Z,1.40
2024-04-15T12:52:43.158Z,1.75
2024-04-15T12:57:47.948Z,1.75
2024-04-15T13:02:52.732Z,1.75
2024-04-15T13:07:57.679Z,1.95
2024-04-15T13:13:02.383Z,1.63
2024-04-15T13:18:07.512Z,2.45
2024-04-15T13:23:13.567Z,1.40
2024-04-15T13:28:18.356Z,2.00
2024-04-15T13:33:23.281Z,2.10
2024-04-15T13:38:29.269Z,1.90
2024-04-15T13:43:34.139Z,1.77
2024-04-15T13:48:39.178Z,1.50
2024-04-15T13:53:43.901Z,2.05
2024-04-15T13:58:48.661Z,1.77
2024-04-15T14:03:54.225Z,1.60
2024-04-15T14:08:59.344Z,1.50
2024-04-15T14:14:04.215Z,1.88
2024-04-15T14:19:09.283Z,1.50
2024-04-15T14:24:14.605Z,3.03
2024-04-15T14:29:22.617Z,2.90
2024-04-15T14:34:28.765Z,2.95
2024-04-15T14:39:33.500Z,3.47
2024-04-15T14:44:38.320Z,3.45
2024-04-15T14:49:43.154Z,3.50
2024-04-15T14:54:47.915Z,3.60
2024-04-15T14:59:54.332Z,3.78
2024-04-15T15:04:59.201Z,3.85
2024-04-15T15:10:04.673Z,4.15
2024-04-15T15:15:09.721Z,4.05
2024-04-15T15:20:14.563Z,4.35
2024-04-15T15:25:19.441Z,4.70
2024-04-15T15:30:24.306Z,3.88
2024-04-15T15:35:29.018Z,3.50
2024-04-15T15:40:33.813Z,3.28
2024-04-15T15:45:38.622Z,3.40
2024-04-15T15:50:43.289Z,3.53
2024-04-15T15:55:49.523Z,3.13
2024-04-15T16:00:54.337Z,4.00
2024-04-15T16:05:59.239Z,3.85
2024-04-15T16:11:03.995Z,3.25
2024-04-15T16:16:09.177Z,3.63
2024-04-15T16:21:14.295Z,3.25
2024-04-15T16:26:19.410Z,3.33
2024-04-15T16:31:24.454Z,3.50
2024-04-15T16:36:30.140Z,3.30
2024-04-15T16:41:34.865Z,3.63
2024-04-15T16:46:39.924Z,3.22
2024-04-15T16:51:44.595Z,3.70
2024-04-15T16:56:49.366Z,3.80
2024-04-15T17:01:54.210Z,3.63
2024-04-15T17:06:59.072Z,3.83
2024-04-15T17:12:03.906Z,3.58
2024-04-15T17:17:11.892Z,3.53
2024-04-15T17:22:17.243Z,3.85
2024-04-15T17:27:22.163Z,4.03
2024-04-15T17:32:30.008Z,4.32
2024-04-15T17:37:35.169Z,3.70
2024-04-15T17:42:41.157Z,3.58
2024-04-15T17:47:46.560Z,4.07
2024-04-15T17:52:51.389Z,3.60
2024-04-15T17:57:58.620Z,3.42
2024-04-15T18:03:04.870Z,3.63
2024-04-15T18:08:11.004Z,3.50
2024-04-15T18:13:15.808Z,3.10
2024-04-15T18:18:20.665Z,3.25
2024-04-15T18:23:25.465Z,3.35
2024-04-15T18:28:30.305Z,3.28
2024-04-15T18:33:35.387Z,3.22
2024-04-15T18:38:40.189Z,3.47
2024-04-15T18:43:44.932Z,3.10
2024-04-15T18:48:49.714Z,3.17
2024-04-15T18:53:54.456Z,3.20
2024-04-15T18:58:59.291Z,3.40
2024-04-15T19:04:04.395Z,3.50
2024-04-15T19:09:09.307Z,3.30
2024-04-15T19:14:15.180Z,3.50
2024-04-15T19:19:20.027Z,3.22
2024-04-15T19:24:24.812Z,3.53
2024-04-15T19:29:29.784Z,3.78
2024-04-15T19:34:34.568Z,3.63
2024-04-15T19:39:39.807Z,3.75
2024-04-15T19:44:44.767Z,3.45
2024-04-15T19:49:49.555Z,3.65
2024-04-15T19:54:54.484Z,3.70
2024-04-15T19:59:59.324Z,3.42
2024-04-15T20:05:04.189Z,4.28
2024-04-15T20:10:09.213Z,3.83
2024-04-15T20:15:14.077Z,4.05
2024-04-15T20:20:21.390Z,4.05
2024-04-15T20:25:26.167Z,3.50
2024-04-15T20:30:30.940Z,3.45
2024-04-15T20:35:35.832Z,3.70
2024-04-15T20:40:41.597Z,3.38
2024-04-15T20:45:50.092Z,3.53
2024-04-15T20:50:54.871Z,3.40
2024-04-15T20:56:00.283Z,3.70
2024-04-15T21:01:07.611Z,3.80
2024-04-15T21:06:12.466Z,3.65
2024-04-15T21:11:17.271Z,3.90
2024-04-15T21:16:22.441Z,3.85
2024-04-15T21:21:27.239Z,3.67
2024-04-15T21:26:32.074Z,3.58
2024-04-15T21:31:36.898Z,3.50
2024-04-15T21:36:41.658Z,3.50
2024-04-15T21:41:46.434Z,3.30
2024-04-15T21:46:51.266Z,4.03
2024-04-15T21:51:55.989Z,3.50
2024-04-15T21:57:02.125Z,3.30
2024-04-15T22:02:07.312Z,3.28
2024-04-15T22:07:12.070Z,3.67
2024-04-15T22:12:16.838Z,3.90
2024-04-15T22:17:21.730Z,3.80
2024-04-15T22:22:26.697Z,3.85
2024-04-15T22:27:31.522Z,3.40
2024-04-15T22:32:36.333Z,3.65
2024-04-15T22:37:41.099Z,3.40
2024-04-15T22:42:45.875Z,3.60
2024-04-15T22:47:50.656Z,3.97
2024-04-15T22:52:55.862Z,3.85
2024-04-15T22:58:00.702Z,3.78
2024-04-15T23:03:05.511Z,3.58
2024-04-15T23:08:10.546Z,3.40
2024-04-15T23:13:15.314Z,2.97
2024-04-15T23:18:20.280Z,4.32
2024-04-15T23:23:25.168Z,3.50
2024-04-15T23:28:32.486Z,3.45
2024-04-15T23:33:37.796Z,4.03
2024-04-15T23:38:43.623Z,3.70
2024-04-15T23:43:48.449Z,3.80
2024-04-15T23:49:12.126Z,4.15
2024-04-15T23:54:35.665Z,4.00
2024-04-15T23:59:59.328Z,4.88
